sensor_id;sensor_type;location;lat;lon;timestamp;P1;durP1;ratioP1;P2;durP2;ratioP2
58017;SDS011;43810;50.860;19.226;2023-04-15T00:01:23;9.15;;;6.75;;
58017;SDS011;43810;50.860;19.226;2023-04-15T00:03:50;9.60;;;6.97;;
58017;SDS011;43810;50.860;19.226;2023-04-15T00:06:17;13.27;;;8.48;;
58017;SDS011;43810;50.860;19.226;2023-04-15T00:08:44;13.43;;;8.05;;
58017;SDS011;43810;50.860;19.226;2023-04-15T00:11:10;11.05;;;6.80;;
58017;SDS011;43810;50.860;19.226;2023-04-15T00:13:37;15.95;;;7.28;;
58017;SDS011;43810;50.860;19.226;2023-04-15T00:16:04;14.10;;;7.55;;
58017;SDS011;43810;50.860;19.226;2023-04-15T00:18:31;10.52;;;6.68;;
58017;SDS011;43810;50.860;19.226;2023-04-15T00:20:57;9.50;;;6.90;;
58017;SDS011;43810;50.860;19.226;2023-04-15T00:23:23;11.32;;;7.55;;
58017;SDS011;43810;50.860;19.226;2023-04-15T00:25:50;11.10;;;6.80;;
58017;SDS011;43810;50.860;19.226;2023-04-15T00:28:16;11.23;;;8.00;;
58017;SDS011;43810;50.860;19.226;2023-04-15T00:30:42;12.20;;;7.30;;
58017;SDS011;43810;50.860;19.226;2023-04-15T00:33:08;10.63;;;7.30;;
58017;SDS011;43810;50.860;19.226;2023-04-15T00:35:35;12.65;;;7.53;;
58017;SDS011;43810;50.860;19.226;2023-04-15T00:38:03;10.27;;;6.60;;
58017;SDS011;43810;50.860;19.226;2023-04-15T00:40:30;11.27;;;7.05;;
58017;SDS011;43810;50.860;19.226;2023-04-15T00:42:56;14.38;;;7.85;;
58017;SDS011;43810;50.860;19.226;2023-04-15T00:45:22;10.95;;;7.30;;
58017;SDS011;43810;50.860;19.226;2023-04-15T00:47:48;12.57;;;6.95;;
58017;SDS011;43810;50.860;19.226;2023-04-15T00:50:15;13.00;;;8.15;;
58017;SDS011;43810;50.860;19.226;2023-04-15T00:52:41;10.32;;;6.82;;
58017;SDS011;43810;50.860;19.226;2023-04-15T00:55:07;12.23;;;7.75;;
58017;SDS011;43810;50.860;19.226;2023-04-15T00:57:34;9.95;;;6.95;;
58017;SDS011;43810;50.860;19.226;2023-04-15T01:00:00;11.63;;;7.55;;
58017;SDS011;43810;50.860;19.226;2023-04-15T01:02:26;12.52;;;6.55;;
58017;SDS011;43810;50.860;19.226;2023-04-15T01:04:53;14.68;;;8.13;;
58017;SDS011;43810;50.860;19.226;2023-04-15T01:07:20;11.73;;;7.50;;
58017;SDS011;43810;50.860;19.226;2023-04-15T01:09:46;15.10;;;7.82;;
58017;SDS011;43810;50.860;19.226;2023-04-15T01:12:12;15.07;;;7.22;;
58017;SDS011;43810;50.860;19.226;2023-04-15T01:14:41;11.43;;;7.18;;
58017;SDS011;43810;50.860;19.226;2023-04-15T01:17:06;11.02;;;7.47;;
58017;SDS011;43810;50.860;19.226;2023-04-15T01:19:33;11.23;;;7.22;;
58017;SDS011;43810;50.860;19.226;2023-04-15T01:22:01;14.07;;;7.20;;
58017;SDS011;43810;50.860;19.226;2023-04-15T01:24:28;10.50;;;7.13;;
58017;SDS011;43810;50.860;19.226;2023-04-15T01:26:56;11.57;;;7.25;;
58017;SDS011;43810;50.860;19.226;2023-04-15T01:29:22;15.10;;;7.43;;
58017;SDS011;43810;50.860;19.226;2023-04-15T01:31:51;14.10;;;7.57;;
58017;SDS011;43810;50.860;19.226;2023-04-15T01:34:18;11.80;;;7.75;;
58017;SDS011;43810;50.860;19.226;2023-04-15T01:36:44;11.75;;;7.88;;
58017;SDS011;43810;50.860;19.226;2023-04-15T01:39:10;10.57;;;7.22;;
58017;SDS011;43810;50.860;19.226;2023-04-15T01:41:36;10.75;;;6.85;;
58017;SDS011;43810;50.860;19.226;2023-04-15T01:44:03;11.80;;;6.90;;
58017;SDS011;43810;50.860;19.226;2023-04-15T01:46:29;9.75;;;6.95;;
58017;SDS011;43810;50.860;19.226;2023-04-15T01:48:55;13.23;;;7.18;;
58017;SDS011;43810;50.860;19.226;2023-04-15T01:51:21;10.70;;;6.70;;
58017;SDS011;43810;50.860;19.226;2023-04-15T01:53:47;13.30;;;6.82;;
58017;SDS011;43810;50.860;19.226;2023-04-15T01:56:13;10.38;;;7.40;;
58017;SDS011;43810;50.860;19.226;2023-04-15T01:58:39;12.25;;;6.63;;
58017;SDS011;43810;50.860;19.226;2023-04-15T02:01:04;11.35;;;7.30;;
58017;SDS011;43810;50.860;19.226;2023-04-15T02:03:31;10.65;;;7.03;;
58017;SDS011;43810;50.860;19.226;2023-04-15T02:05:57;9.88;;;6.57;;
58017;SDS011;43810;50.860;19.226;2023-04-15T02:08:23;11.50;;;6.47;;
58017;SDS011;43810;50.860;19.226;2023-04-15T02:10:48;9.90;;;6.93;;
58017;SDS011;43810;50.860;19.226;2023-04-15T02:13:15;10.55;;;7.18;;
58017;SDS011;43810;50.860;19.226;2023-04-15T02:15:45;10.38;;;6.10;;
58017;SDS011;43810;50.860;19.226;2023-04-15T02:18:15;11.55;;;6.78;;
58017;SDS011;43810;50.860;19.226;2023-04-15T02:20:41;8.95;;;6.82;;
58017;SDS011;43810;50.860;19.226;2023-04-15T02:23:08;9.05;;;7.18;;
58017;SDS011;43810;50.860;19.226;2023-04-15T02:25:35;9.93;;;6.90;;
58017;SDS011;43810;50.860;19.226;2023-04-15T02:28:01;8.52;;;6.18;;
58017;SDS011;43810;50.860;19.226;2023-04-15T02:30:27;9.93;;;6.60;;
58017;SDS011;43810;50.860;19.226;2023-04-15T02:32:53;9.48;;;7.88;;
58017;SDS011;43810;50.860;19.226;2023-04-15T02:35:20;10.80;;;6.63;;
58017;SDS011;43810;50.860;19.226;2023-04-15T02:37:46;10.13;;;6.93;;
58017;SDS011;43810;50.860;19.226;2023-04-15T02:40:12;10.80;;;7.63;;
58017;SDS011;43810;50.860;19.226;2023-04-15T02:42:38;8.40;;;6.63;;
58017;SDS011;43810;50.860;19.226;2023-04-15T02:45:05;8.57;;;6.72;;
58017;SDS011;43810;50.860;19.226;2023-04-15T02:47:33;12.10;;;6.75;;
58017;SDS011;43810;50.860;19.226;2023-04-15T02:50:01;11.82;;;7.07;;
58017;SDS011;43810;50.860;19.226;2023-04-15T02:52:30;11.00;;;7.05;;
58017;SDS011;43810;50.860;19.226;2023-04-15T02:54:55;9.60;;;6.75;;
58017;SDS011;43810;50.860;19.226;2023-04-15T02:57:25;8.13;;;6.75;;
58017;SDS011;43810;50.860;19.226;2023-04-15T02:59:53;10.05;;;6.88;;
58017;SDS011;43810;50.860;19.226;2023-04-15T03:02:18;11.32;;;7.18;;
58017;SDS011;43810;50.860;19.226;2023-04-15T03:04:44;10.52;;;7.43;;
58017;SDS011;43810;50.860;19.226;2023-04-15T03:07:10;10.82;;;7.05;;
58017;SDS011;43810;50.860;19.226;2023-04-15T03:09:36;12.10;;;7.03;;
58017;SDS011;43810;50.860;19.226;2023-04-15T03:12:05;11.30;;;6.78;;
58017;SDS011;43810;50.860;19.226;2023-04-15T03:14:32;12.70;;;6.25;;
58017;SDS011;43810;50.860;19.226;2023-04-15T03:16:58;12.02;;;6.95;;
58017;SDS011;43810;50.860;19.226;2023-04-15T03:19:24;8.98;;;6.53;;
58017;SDS011;43810;50.860;19.226;2023-04-15T03:21:50;9.60;;;6.72;;
58017;SDS011;43810;50.860;19.226;2023-04-15T03:24:16;9.93;;;6.35;;
58017;SDS011;43810;50.860;19.226;2023-04-15T03:26:43;11.27;;;7.07;;
58017;SDS011;43810;50.860;19.226;2023-04-15T03:29:08;10.85;;;6.00;;
58017;SDS011;43810;50.860;19.226;2023-04-15T03:31:34;8.10;;;5.70;;
58017;SDS011;43810;50.860;19.226;2023-04-15T03:34:00;7.15;;;5.40;;
58017;SDS011;43810;50.860;19.226;2023-04-15T03:36:28;11.48;;;6.15;;
58017;SDS011;43810;50.860;19.226;2023-04-15T03:38:57;7.50;;;5.75;;
58017;SDS011;43810;50.860;19.226;2023-04-15T03:41:23;10.93;;;6.10;;
58017;SDS011;43810;50.860;19.226;2023-04-15T03:43:49;9.30;;;6.18;;
58017;SDS011;43810;50.860;19.226;2023-04-15T03:46:17;10.98;;;6.50;;
58017;SDS011;43810;50.860;19.226;2023-04-15T03:48:42;8.77;;;5.80;;
58017;SDS011;43810;50.860;19.226;2023-04-15T03:51:09;10.32;;;5.95;;
58017;SDS011;43810;50.860;19.226;2023-04-15T03:53:35;8.68;;;5.97;;
58017;SDS011;43810;50.860;19.226;2023-04-15T03:56:01;8.93;;;6.05;;
58017;SDS011;43810;50.860;19.226;2023-04-15T03:58:26;9.18;;;5.65;;
58017;SDS011;43810;50.860;19.226;2023-04-15T04:00:53;8.45;;;6.18;;
58017;SDS011;43810;50.860;19.226;2023-04-15T04:03:19;10.18;;;6.22;;
58017;SDS011;43810;50.860;19.226;2023-04-15T04:05:45;8.05;;;5.55;;
58017;SDS011;43810;50.860;19.226;2023-04-15T04:08:11;8.02;;;5.60;;
58017;SDS011;43810;50.860;19.226;2023-04-15T04:10:41;8.82;;;5.60;;
58017;SDS011;43810;50.860;19.226;2023-04-15T04:13:07;7.65;;;5.68;;
58017;SDS011;43810;50.860;19.226;2023-04-15T04:15:33;9.73;;;6.35;;
58017;SDS011;43810;50.860;19.226;2023-04-15T04:17:59;8.50;;;6.45;;
58017;SDS011;43810;50.860;19.226;2023-04-15T04:20:25;8.02;;;5.20;;
58017;SDS011;43810;50.860;19.226;2023-04-15T04:22:50;10.50;;;6.53;;
58017;SDS011;43810;50.860;19.226;2023-04-15T04:25:16;8.13;;;5.95;;
58017;SDS011;43810;50.860;19.226;2023-04-15T04:27:42;9.55;;;5.75;;
58017;SDS011;43810;50.860;19.226;2023-04-15T04:30:10;8.40;;;5.72;;
58017;SDS011;43810;50.860;19.226;2023-04-15T04:32:36;8.10;;;5.88;;
58017;SDS011;43810;50.860;19.226;2023-04-15T04:35:02;10.63;;;5.78;;
58017;SDS011;43810;50.860;19.226;2023-04-15T04:37:29;7.60;;;5.32;;
58017;SDS011;43810;50.860;19.226;2023-04-15T04:39:55;7.55;;;5.05;;
58017;SDS011;43810;50.860;19.226;2023-04-15T04:42:21;9.32;;;5.75;;
58017;SDS011;43810;50.860;19.226;2023-04-15T04:44:47;8.88;;;4.68;;
58017;SDS011;43810;50.860;19.226;2023-04-15T04:47:12;7.47;;;5.38;;
58017;SDS011;43810;50.860;19.226;2023-04-15T04:49:38;6.88;;;5.30;;
58017;SDS011;43810;50.860;19.226;2023-04-15T04:52:05;6.63;;;4.60;;
58017;SDS011;43810;50.860;19.226;2023-04-15T04:54:31;7.75;;;5.43;;
58017;SDS011;43810;50.860;19.226;2023-04-15T04:56:58;6.88;;;5.65;;
58017;SDS011;43810;50.860;19.226;2023-04-15T04:59:24;6.60;;;5.38;;
58017;SDS011;43810;50.860;19.226;2023-04-15T05:01:49;10.48;;;5.95;;
58017;SDS011;43810;50.860;19.226;2023-04-15T05:04:16;10.27;;;5.63;;
58017;SDS011;43810;50.860;19.226;2023-04-15T05:06:41;7.97;;;5.53;;
58017;SDS011;43810;50.860;19.226;2023-04-15T05:09:07;8.57;;;5.50;;
58017;SDS011;43810;50.860;19.226;2023-04-15T05:11:33;8.55;;;5.75;;
58017;SDS011;43810;50.860;19.226;2023-04-15T05:13:59;6.18;;;4.72;;
58017;SDS011;43810;50.860;19.226;2023-04-15T05:16:26;6.95;;;4.68;;
58017;SDS011;43810;50.860;19.226;2023-04-15T05:18:52;5.13;;;4.22;;
58017;SDS011;43810;50.860;19.226;2023-04-15T05:21:18;5.50;;;4.38;;
58017;SDS011;43810;50.860;19.226;2023-04-15T05:23:45;8.65;;;4.47;;
58017;SDS011;43810;50.860;19.226;2023-04-15T05:26:11;7.50;;;4.95;;
58017;SDS011;43810;50.860;19.226;2023-04-15T05:28:37;7.95;;;4.97;;
58017;SDS011;43810;50.860;19.226;2023-04-15T05:31:03;7.15;;;5.50;;
58017;SDS011;43810;50.860;19.226;2023-04-15T05:33:29;9.38;;;5.88;;
58017;SDS011;43810;50.860;19.226;2023-04-15T05:35:55;9.48;;;5.38;;
58017;SDS011;43810;50.860;19.226;2023-04-15T05:38:21;8.48;;;5.32;;
58017;SDS011;43810;50.860;19.226;2023-04-15T05:40:47;8.20;;;5.43;;
58017;SDS011;43810;50.860;19.226;2023-04-15T05:43:13;7.70;;;4.70;;
58017;SDS011;43810;50.860;19.226;2023-04-15T05:45:39;8.45;;;5.32;;
58017;SDS011;43810;50.860;19.226;2023-04-15T05:48:05;7.95;;;5.47;;
58017;SDS011;43810;50.860;19.226;2023-04-15T05:50:31;8.63;;;5.68;;
58017;SDS011;43810;50.860;19.226;2023-04-15T05:52:57;9.45;;;5.80;;
58017;SDS011;43810;50.860;19.226;2023-04-15T05:55:23;9.60;;;5.68;;
58017;SDS011;43810;50.860;19.226;2023-04-15T05:57:49;11.50;;;6.93;;
58017;SDS011;43810;50.860;19.226;2023-04-15T06:00:14;13.25;;;6.95;;
58017;SDS011;43810;50.860;19.226;2023-04-15T06:02:41;11.93;;;7.43;;
58017;SDS011;43810;50.860;19.226;2023-04-15T06:05:07;14.38;;;8.80;;
58017;SDS011;43810;50.860;19.226;2023-04-15T06:07:34;14.52;;;8.65;;
58017;SDS011;43810;50.860;19.226;2023-04-15T06:10:04;16.70;;;9.30;;
58017;SDS011;43810;50.860;19.226;2023-04-15T06:12:30;15.70;;;8.40;;
58017;SDS011;43810;50.860;19.226;2023-04-15T06:14:56;21.63;;;10.68;;
58017;SDS011;43810;50.860;19.226;2023-04-15T06:17:22;16.70;;;10.25;;
58017;SDS011;43810;50.860;19.226;2023-04-15T06:19:48;18.50;;;10.10;;
58017;SDS011;43810;50.860;19.226;2023-04-15T06:22:20;20.10;;;10.88;;
58017;SDS011;43810;50.860;19.226;2023-04-15T06:24:47;21.90;;;10.73;;
58017;SDS011;43810;50.860;19.226;2023-04-15T06:27:15;20.00;;;10.35;;
58017;SDS011;43810;50.860;19.226;2023-04-15T06:29:41;18.73;;;10.02;;
58017;SDS011;43810;50.860;19.226;2023-04-15T06:32:07;20.23;;;10.50;;
58017;SDS011;43810;50.860;19.226;2023-04-15T06:34:33;14.65;;;8.68;;
58017;SDS011;43810;50.860;19.226;2023-04-15T06:36:59;19.67;;;10.07;;
58017;SDS011;43810;50.860;19.226;2023-04-15T06:39:25;18.02;;;8.98;;
58017;SDS011;43810;50.860;19.226;2023-04-15T06:41:51;17.42;;;10.68;;
58017;SDS011;43810;50.860;19.226;2023-04-15T06:44:17;23.70;;;9.60;;
58017;SDS011;43810;50.860;19.226;2023-04-15T06:46:43;19.83;;;8.90;;
58017;SDS011;43810;50.860;19.226;2023-04-15T06:49:09;13.98;;;8.00;;
58017;SDS011;43810;50.860;19.226;2023-04-15T06:51:36;12.50;;;7.35;;
58017;SDS011;43810;50.860;19.226;2023-04-15T06:54:02;13.70;;;7.68;;
58017;SDS011;43810;50.860;19.226;2023-04-15T06:56:31;13.68;;;7.03;;
58017;SDS011;43810;50.860;19.226;2023-04-15T06:58:57;12.75;;;7.07;;
58017;SDS011;43810;50.860;19.226;2023-04-15T07:01:23;13.32;;;7.10;;
58017;SDS011;43810;50.860;19.226;2023-04-15T07:03:49;13.07;;;7.32;;
58017;SDS011;43810;50.860;19.226;2023-04-15T07:06:15;17.45;;;7.95;;
58017;SDS011;43810;50.860;19.226;2023-04-15T07:08:41;14.18;;;7.88;;
58017;SDS011;43810;50.860;19.226;2023-04-15T07:11:07;14.95;;;7.45;;
58017;SDS011;43810;50.860;19.226;2023-04-15T07:13:35;14.18;;;7.32;;
58017;SDS011;43810;50.860;19.226;2023-04-15T07:16:01;13.68;;;7.28;;
58017;SDS011;43810;50.860;19.226;2023-04-15T07:18:27;14.98;;;7.35;;
58017;SDS011;43810;50.860;19.226;2023-04-15T07:20:53;12.77;;;6.30;;
58017;SDS011;43810;50.860;19.226;2023-04-15T07:23:19;12.27;;;6.55;;
58017;SDS011;43810;50.860;19.226;2023-04-15T07:25:46;11.95;;;6.35;;
58017;SDS011;43810;50.860;19.226;2023-04-15T07:28:11;13.63;;;6.22;;
58017;SDS011;43810;50.860;19.226;2023-04-15T07:30:37;9.98;;;5.50;;
58017;SDS011;43810;50.860;19.226;2023-04-15T07:33:03;10.98;;;6.07;;
58017;SDS011;43810;50.860;19.226;2023-04-15T07:35:29;7.85;;;4.55;;
58017;SDS011;43810;50.860;19.226;2023-04-15T07:37:55;10.02;;;5.80;;
58017;SDS011;43810;50.860;19.226;2023-04-15T07:40:22;8.82;;;5.38;;
58017;SDS011;43810;50.860;19.226;2023-04-15T07:42:48;10.73;;;6.20;;
58017;SDS011;43810;50.860;19.226;2023-04-15T07:45:14;8.40;;;4.80;;
58017;SDS011;43810;50.860;19.226;2023-04-15T07:47:40;10.70;;;5.30;;
58017;SDS011;43810;50.860;19.226;2023-04-15T07:50:07;11.25;;;4.47;;
58017;SDS011;43810;50.860;19.226;2023-04-15T07:52:35;6.75;;;4.22;;
58017;SDS011;43810;50.860;19.226;2023-04-15T07:55:04;7.10;;;4.13;;
58017;SDS011;43810;50.860;19.226;2023-04-15T07:57:33;9.25;;;4.45;;
58017;SDS011;43810;50.860;19.226;2023-04-15T08:00:00;7.85;;;4.45;;
58017;SDS011;43810;50.860;19.226;2023-04-15T08:02:28;11.65;;;4.50;;
58017;SDS011;43810;50.860;19.226;2023-04-15T08:04:54;6.68;;;4.38;;
58017;SDS011;43810;50.860;19.226;2023-04-15T08:07:19;6.88;;;3.97;;
58017;SDS011;43810;50.860;19.226;2023-04-15T08:09:45;5.93;;;3.20;;
58017;SDS011;43810;50.860;19.226;2023-04-15T08:12:11;8.05;;;4.43;;
58017;SDS011;43810;50.860;19.226;2023-04-15T08:14:38;8.00;;;4.78;;
58017;SDS011;43810;50.860;19.226;2023-04-15T08:17:04;7.65;;;4.45;;
58017;SDS011;43810;50.860;19.226;2023-04-15T08:19:30;7.45;;;5.28;;
58017;SDS011;43810;50.860;19.226;2023-04-15T08:21:55;7.40;;;4.43;;
58017;SDS011;43810;50.860;19.226;2023-04-15T08:24:22;9.15;;;5.72;;
58017;SDS011;43810;50.860;19.226;2023-04-15T08:26:50;8.15;;;4.13;;
58017;SDS011;43810;50.860;19.226;2023-04-15T08:29:17;8.57;;;4.97;;
58017;SDS011;43810;50.860;19.226;2023-04-15T08:31:43;11.05;;;6.82;;
58017;SDS011;43810;50.860;19.226;2023-04-15T08:34:10;17.45;;;10.70;;
58017;SDS011;43810;50.860;19.226;2023-04-15T08:36:36;13.85;;;7.32;;
58017;SDS011;43810;50.860;19.226;2023-04-15T08:39:02;10.13;;;6.47;;
58017;SDS011;43810;50.860;19.226;2023-04-15T08:41:33;10.82;;;6.18;;
58017;SDS011;43810;50.860;19.226;2023-04-15T08:44:04;10.48;;;6.15;;
58017;SDS011;43810;50.860;19.226;2023-04-15T08:46:31;8.73;;;5.53;;
58017;SDS011;43810;50.860;19.226;2023-04-15T08:49:02;9.93;;;5.22;;
58017;SDS011;43810;50.860;19.226;2023-04-15T08:51:30;9.80;;;4.78;;
58017;SDS011;43810;50.860;19.226;2023-04-15T08:53:57;5.60;;;3.88;;
58017;SDS011;43810;50.860;19.226;2023-04-15T08:56:24;9.30;;;4.57;;
58017;SDS011;43810;50.860;19.226;2023-04-15T08:58:52;6.70;;;4.15;;
58017;SDS011;43810;50.860;19.226;2023-04-15T09:01:18;7.38;;;3.50;;
58017;SDS011;43810;50.860;19.226;2023-04-15T09:03:45;3.35;;;2.63;;
58017;SDS011;43810;50.860;19.226;2023-04-15T09:06:17;5.45;;;2.70;;
58017;SDS011;43810;50.860;19.226;2023-04-15T09:08:44;6.25;;;4.18;;
58017;SDS011;43810;50.860;19.226;2023-04-15T09:11:10;6.60;;;3.92;;
58017;SDS011;43810;50.860;19.226;2023-04-15T09:13:36;8.38;;;4.45;;
58017;SDS011;43810;50.860;19.226;2023-04-15T09:16:05;5.65;;;3.70;;
58017;SDS011;43810;50.860;19.226;2023-04-15T09:18:37;6.43;;;3.80;;
58017;SDS011;43810;50.860;19.226;2023-04-15T09:21:11;7.32;;;3.65;;
58017;SDS011;43810;50.860;19.226;2023-04-15T09:24:02;4.32;;;3.28;;
58017;SDS011;43810;50.860;19.226;2023-04-15T09:26:34;5.75;;;3.35;;
58017;SDS011;43810;50.860;19.226;2023-04-15T09:29:09;5.85;;;3.15;;
58017;SDS011;43810;50.860;19.226;2023-04-15T09:31:39;5.60;;;3.30;;
58017;SDS011;43810;50.860;19.226;2023-04-15T09:34:07;5.95;;;2.97;;
58017;SDS011;43810;50.860;19.226;2023-04-15T09:39:11;6.30;;;2.83;;
58017;SDS011;43810;50.860;19.226;2023-04-15T09:41:36;4.25;;;2.42;;
58017;SDS011;43810;50.860;19.226;2023-04-15T09:44:03;2.83;;;2.50;;
58017;SDS011;43810;50.860;19.226;2023-04-15T09:46:44;3.40;;;2.60;;
58017;SDS011;43810;50.860;19.226;2023-04-15T09:49:11;3.63;;;2.58;;
58017;SDS011;43810;50.860;19.226;2023-04-15T09:51:37;2.85;;;2.00;;
58017;SDS011;43810;50.860;19.226;2023-04-15T09:54:04;4.78;;;3.10;;
58017;SDS011;43810;50.860;19.226;2023-04-15T09:56:36;4.30;;;2.55;;
58017;SDS011;43810;50.860;19.226;2023-04-15T09:59:09;7.63;;;2.97;;
58017;SDS011;43810;50.860;19.226;2023-04-15T10:01:35;3.40;;;2.72;;
58017;SDS011;43810;50.860;19.226;2023-04-15T10:04:02;4.10;;;2.40;;
58017;SDS011;43810;50.860;19.226;2023-04-15T10:06:29;2.60;;;2.05;;
58017;SDS011;43810;50.860;19.226;2023-04-15T10:08:59;3.47;;;2.20;;
58017;SDS011;43810;50.860;19.226;2023-04-15T10:11:28;2.20;;;1.75;;
58017;SDS011;43810;50.860;19.226;2023-04-15T10:13:55;3.40;;;1.88;;
58017;SDS011;43810;50.860;19.226;2023-04-15T10:16:22;4.35;;;2.00;;
58017;SDS011;43810;50.860;19.226;2023-04-15T10:18:56;3.90;;;1.83;;
58017;SDS011;43810;50.860;19.226;2023-04-15T10:21:23;2.20;;;2.00;;
58017;SDS011;43810;50.860;19.226;2023-04-15T10:23:49;3.15;;;2.00;;
58017;SDS011;43810;50.860;19.226;2023-04-15T10:26:15;3.35;;;1.92;;
58017;SDS011;43810;50.860;19.226;2023-04-15T10:28:42;4.22;;;2.13;;
58017;SDS011;43810;50.860;19.226;2023-04-15T10:31:14;7.13;;;3.78;;
58017;SDS011;43810;50.860;19.226;2023-04-15T10:33:41;4.15;;;2.20;;
58017;SDS011;43810;50.860;19.226;2023-04-15T10:36:08;3.47;;;2.35;;
58017;SDS011;43810;50.860;19.226;2023-04-15T10:41:22;4.72;;;2.25;;
58017;SDS011;43810;50.860;19.226;2023-04-15T10:43:52;7.85;;;2.92;;
58017;SDS011;43810;50.860;19.226;2023-04-15T10:46:24;6.90;;;2.30;;
58017;SDS011;43810;50.860;19.226;2023-04-15T10:51:42;3.50;;;2.20;;
58017;SDS011;43810;50.860;19.226;2023-04-15T10:54:31;4.63;;;2.40;;
58017;SDS011;43810;50.860;19.226;2023-04-15T11:05:22;7.32;;;2.13;;
58017;SDS011;43810;50.860;19.226;2023-04-15T11:08:09;7.20;;;2.97;;
58017;SDS011;43810;50.860;19.226;2023-04-15T11:13:13;3.42;;;2.00;;
58017;SDS011;43810;50.860;19.226;2023-04-15T11:15:42;3.15;;;2.08;;
58017;SDS011;43810;50.860;19.226;2023-04-15T11:20:50;8.63;;;2.22;;
58017;SDS011;43810;50.860;19.226;2023-04-15T11:23:20;4.00;;;2.20;;
58017;SDS011;43810;50.860;19.226;2023-04-15T11:26:08;3.08;;;1.90;;
58017;SDS011;43810;50.860;19.226;2023-04-15T11:28:36;3.78;;;2.13;;
58017;SDS011;43810;50.860;19.226;2023-04-15T11:31:10;3.10;;;1.98;;
58017;SDS011;43810;50.860;19.226;2023-04-15T11:36:13;7.22;;;2.50;;
58017;SDS011;43810;50.860;19.226;2023-04-15T11:38:41;3.95;;;2.63;;
58017;SDS011;43810;50.860;19.226;2023-04-15T11:41:09;4.95;;;2.35;;
58017;SDS011;43810;50.860;19.226;2023-04-15T11:43:35;7.20;;;2.83;;
58017;SDS011;43810;50.860;19.226;2023-04-15T11:46:01;4.97;;;2.40;;
58017;SDS011;43810;50.860;19.226;2023-04-15T11:48:29;3.30;;;2.00;;
58017;SDS011;43810;50.860;19.226;2023-04-15T11:51:01;3.88;;;2.60;;
58017;SDS011;43810;50.860;19.226;2023-04-15T11:53:42;4.35;;;2.17;;
58017;SDS011;43810;50.860;19.226;2023-04-15T11:58:45;3.30;;;2.30;;
58017;SDS011;43810;50.860;19.226;2023-04-15T12:01:12;4.00;;;2.47;;
58017;SDS011;43810;50.860;19.226;2023-04-15T12:13:52;5.47;;;2.40;;
58017;SDS011;43810;50.860;19.226;2023-04-15T12:16:19;6.93;;;2.72;;
58017;SDS011;43810;50.860;19.226;2023-04-15T12:18:46;4.68;;;2.28;;
58017;SDS011;43810;50.860;19.226;2023-04-15T12:21:27;5.75;;;2.70;;
58017;SDS011;43810;50.860;19.226;2023-04-15T12:24:00;6.67;;;2.73;;
58017;SDS011;43810;50.860;19.226;2023-04-15T12:26:33;4.45;;;2.40;;
58017;SDS011;43810;50.860;19.226;2023-04-15T12:29:03;3.45;;;2.38;;
58017;SDS011;43810;50.860;19.226;2023-04-15T12:31:30;4.25;;;2.42;;
58017;SDS011;43810;50.860;19.226;2023-04-15T12:33:56;4.90;;;2.67;;
58017;SDS011;43810;50.860;19.226;2023-04-15T12:36:23;7.35;;;2.85;;
58017;SDS011;43810;50.860;19.226;2023-04-15T12:38:49;12.40;;;4.97;;
58017;SDS011;43810;50.860;19.226;2023-04-15T12:41:15;11.85;;;4.75;;
58017;SDS011;43810;50.860;19.226;2023-04-15T12:43:43;7.78;;;4.25;;
58017;SDS011;43810;50.860;19.226;2023-04-15T12:46:13;8.88;;;3.88;;
58017;SDS011;43810;50.860;19.226;2023-04-15T12:48:39;7.97;;;4.72;;
58017;SDS011;43810;50.860;19.226;2023-04-15T12:51:06;4.97;;;3.70;;
58017;SDS011;43810;50.860;19.226;2023-04-15T12:53:31;9.00;;;5.07;;
58017;SDS011;43810;50.860;19.226;2023-04-15T12:56:00;8.75;;;5.05;;
58017;SDS011;43810;50.860;19.226;2023-04-15T12:58:28;9.10;;;4.45;;
58017;SDS011;43810;50.860;19.226;2023-04-15T13:00:54;7.35;;;4.40;;
58017;SDS011;43810;50.860;19.226;2023-04-15T13:03:21;10.15;;;4.88;;
58017;SDS011;43810;50.860;19.226;2023-04-15T13:05:48;6.85;;;4.47;;
58017;SDS011;43810;50.860;19.226;2023-04-15T13:08:13;8.77;;;4.60;;
58017;SDS011;43810;50.860;19.226;2023-04-15T13:10:39;7.53;;;4.43;;
58017;SDS011;43810;50.860;19.226;2023-04-15T13:13:06;7.47;;;4.53;;
58017;SDS011;43810;50.860;19.226;2023-04-15T13:15:33;8.45;;;3.97;;
58017;SDS011;43810;50.860;19.226;2023-04-15T13:17:59;8.25;;;4.18;;
58017;SDS011;43810;50.860;19.226;2023-04-15T13:20:25;6.82;;;3.83;;
58017;SDS011;43810;50.860;19.226;2023-04-15T13:22:52;8.75;;;5.10;;
58017;SDS011;43810;50.860;19.226;2023-04-15T13:25:18;6.85;;;3.92;;
58017;SDS011;43810;50.860;19.226;2023-04-15T13:27:44;6.28;;;3.28;;
58017;SDS011;43810;50.860;19.226;2023-04-15T13:30:13;6.13;;;3.80;;
58017;SDS011;43810;50.860;19.226;2023-04-15T13:32:45;6.20;;;3.60;;
58017;SDS011;43810;50.860;19.226;2023-04-15T13:35:20;5.25;;;3.92;;
58017;SDS011;43810;50.860;19.226;2023-04-15T13:37:46;6.45;;;4.07;;
58017;SDS011;43810;50.860;19.226;2023-04-15T13:40:12;5.45;;;3.63;;
58017;SDS011;43810;50.860;19.226;2023-04-15T13:42:37;6.38;;;3.95;;
58017;SDS011;43810;50.860;19.226;2023-04-15T13:45:03;6.47;;;3.58;;
58017;SDS011;43810;50.860;19.226;2023-04-15T13:47:29;7.40;;;3.97;;
58017;SDS011;43810;50.860;19.226;2023-04-15T13:49:55;5.20;;;3.50;;
58017;SDS011;43810;50.860;19.226;2023-04-15T13:52:22;6.43;;;3.60;;
58017;SDS011;43810;50.860;19.226;2023-04-15T13:54:48;3.10;;;2.28;;
58017;SDS011;43810;50.860;19.226;2023-04-15T13:57:17;5.57;;;2.67;;
58017;SDS011;43810;50.860;19.226;2023-04-15T13:59:43;10.52;;;3.30;;
58017;SDS011;43810;50.860;19.226;2023-04-15T14:02:09;4.70;;;3.20;;
58017;SDS011;43810;50.860;19.226;2023-04-15T14:04:35;4.25;;;2.83;;
58017;SDS011;43810;50.860;19.226;2023-04-15T14:07:01;5.05;;;3.00;;
58017;SDS011;43810;50.860;19.226;2023-04-15T14:09:28;4.30;;;2.17;;
58017;SDS011;43810;50.860;19.226;2023-04-15T14:11:56;4.57;;;2.75;;
58017;SDS011;43810;50.860;19.226;2023-04-15T14:14:24;6.80;;;2.92;;
58017;SDS011;43810;50.860;19.226;2023-04-15T14:16:50;4.40;;;2.75;;
58017;SDS011;43810;50.860;19.226;2023-04-15T14:19:16;2.95;;;1.95;;
58017;SDS011;43810;50.860;19.226;2023-04-15T14:21:44;5.78;;;3.17;;
58017;SDS011;43810;50.860;19.226;2023-04-15T14:24:10;4.13;;;1.70;;
58017;SDS011;43810;50.860;19.226;2023-04-15T14:26:36;2.15;;;1.70;;
58017;SDS011;43810;50.860;19.226;2023-04-15T14:29:02;2.72;;;1.40;;
58017;SDS011;43810;50.860;19.226;2023-04-15T14:31:28;2.83;;;2.00;;
58017;SDS011;43810;50.860;19.226;2023-04-15T14:33:56;1.90;;;1.65;;
58017;SDS011;43810;50.860;19.226;2023-04-15T14:36:22;2.70;;;1.83;;
58017;SDS011;43810;50.860;19.226;2023-04-15T14:38:48;3.03;;;1.90;;
58017;SDS011;43810;50.860;19.226;2023-04-15T14:41:14;5.38;;;1.73;;
58017;SDS011;43810;50.860;19.226;2023-04-15T14:43:40;2.92;;;1.50;;
58017;SDS011;43810;50.860;19.226;2023-04-15T14:46:06;3.22;;;2.28;;
58017;SDS011;43810;50.860;19.226;2023-04-15T14:48:33;4.03;;;2.30;;
58017;SDS011;43810;50.860;19.226;2023-04-15T14:50:59;5.50;;;3.17;;
58017;SDS011;43810;50.860;19.226;2023-04-15T14:53:25;2.97;;;1.70;;
58017;SDS011;43810;50.860;19.226;2023-04-15T14:55:51;3.58;;;1.63;;
58017;SDS011;43810;50.860;19.226;2023-04-15T14:58:17;3.50;;;2.10;;
58017;SDS011;43810;50.860;19.226;2023-04-15T15:00:42;3.45;;;2.05;;
58017;SDS011;43810;50.860;19.226;2023-04-15T15:03:09;3.35;;;2.05;;
58017;SDS011;43810;50.860;19.226;2023-04-15T15:05:39;3.08;;;1.88;;